THY4902 LTBJ-LTDA
Flight info
| Callsign | THY4902 |
|---|---|
| Flight time | 1h 19m |
| Altitude | 350 |
| Route | SISVO UT489 AYT UR55 MUT UW74 ADA |
| Aircraft | A321/M-SDE3/K |
Departure
| Time | 2026-05-06 10:21 |
|---|---|
| Airport | Adnan Menderes International Airport (LTBJ) |
Arrival
| Time | 2026-05-06 11:40 |
|---|---|
| Airport | Hatay Airport (LTDA) |
| Time | Latitude | Longitude | Altitude | Speed | Heading |
|---|---|---|---|---|---|
| 2026-05-06 09:56 | 38.29268 | 27.15232 | 402 ft | 0 kts | 77° |
| 2026-05-06 10:09 | 38.29264 | 27.15208 | 410 ft | 3 kts | 77° |
| 2026-05-06 10:09 | 38.29261 | 27.15177 | 410 ft | 3 kts | 102° |
| 2026-05-06 10:10 | 38.29275 | 27.15154 | 410 ft | 3 kts | 154° |
| 2026-05-06 10:10 | 38.29285 | 27.15151 | 410 ft | 0 kts | 171° |
| 2026-05-06 10:13 | 38.29283 | 27.15151 | 410 ft | 0 kts | 171° |
| 2026-05-06 10:13 | 38.29277 | 27.15152 | 410 ft | 1 kts | 172° |
| 2026-05-06 10:13 | 38.29258 | 27.15155 | 410 ft | 4 kts | 172° |
| 2026-05-06 10:13 | 38.29217 | 27.15166 | 411 ft | 7 kts | 167° |
| 2026-05-06 10:14 | 38.29151 | 27.15186 | 412 ft | 11 kts | 166° |
| 2026-05-06 10:14 | 38.29062 | 27.15206 | 411 ft | 14 kts | 172° |
| 2026-05-06 10:14 | 38.29007 | 27.15243 | 411 ft | 9 kts | 118° |
| 2026-05-06 10:14 | 38.28991 | 27.15315 | 411 ft | 5 kts | 171° |
| 2026-05-06 10:15 | 38.28936 | 27.15320 | 411 ft | 10 kts | 170° |
| 2026-05-06 10:15 | 38.28853 | 27.15345 | 411 ft | 14 kts | 166° |
| 2026-05-06 10:15 | 38.28741 | 27.15376 | 410 ft | 18 kts | 163° |
| 2026-05-06 10:15 | 38.28682 | 27.15397 | 410 ft | 0 kts | 165° |
| 2026-05-06 10:16 | 38.28672 | 27.15400 | 410 ft | 3 kts | 167° |
| 2026-05-06 10:16 | 38.28629 | 27.15413 | 410 ft | 9 kts | 168° |
| 2026-05-06 10:16 | 38.28550 | 27.15433 | 409 ft | 14 kts | 168° |
| 2026-05-06 10:17 | 38.28437 | 27.15468 | 407 ft | 19 kts | 165° |
| 2026-05-06 10:17 | 38.28292 | 27.15510 | 403 ft | 23 kts | 167° |
| 2026-05-06 10:17 | 38.28116 | 27.15565 | 396 ft | 28 kts | 166° |
| 2026-05-06 10:17 | 38.27915 | 27.15627 | 391 ft | 17 kts | 164° |
| 2026-05-06 10:18 | 38.27797 | 27.15659 | 387 ft | 20 kts | 169° |
| 2026-05-06 10:18 | 38.27759 | 27.15676 | 386 ft | 4 kts | 128° |
| 2026-05-06 10:18 | 38.27757 | 27.15724 | 386 ft | 6 kts | 76° |
| 2026-05-06 10:18 | 38.27773 | 27.15786 | 385 ft | 8 kts | 69° |
| 2026-05-06 10:19 | 38.27787 | 27.15873 | 385 ft | 11 kts | 81° |
| 2026-05-06 10:19 | 38.27797 | 27.15901 | 385 ft | 3 kts | 41° |
| 2026-05-06 10:19 | 38.27817 | 27.15908 | 385 ft | 3 kts | 349° |
| 2026-05-06 10:19 | 38.27840 | 27.15900 | 386 ft | 4 kts | 346° |
| 2026-05-06 10:20 | 38.28054 | 27.15842 | 393 ft | 68 kts | 347° |
| 2026-05-06 10:20 | 38.28698 | 27.15654 | 409 ft | 133 kts | 346° |
| 2026-05-06 10:21 | 38.32518 | 27.13532 | 2674 ft | 164 kts | 323° |
| 2026-05-06 10:21 | 38.33577 | 27.12947 | 3032 ft | 176 kts | 359° |
| 2026-05-06 10:21 | 38.34765 | 27.13144 | 3435 ft | 188 kts | 8° |
| 2026-05-06 10:22 | 38.36058 | 27.13104 | 3812 ft | 204 kts | 350° |
| 2026-05-06 10:22 | 38.37488 | 27.12652 | 4192 ft | 223 kts | 346° |
| 2026-05-06 10:22 | 38.39037 | 27.12117 | 4583 ft | 243 kts | 345° |
| 2026-05-06 10:22 | 38.40674 | 27.11542 | 5304 ft | 247 kts | 346° |
| 2026-05-06 10:23 | 38.42350 | 27.10946 | 5916 ft | 257 kts | 345° |
| 2026-05-06 10:23 | 38.44066 | 27.10308 | 6683 ft | 260 kts | 344° |
| 2026-05-06 10:23 | 38.45770 | 27.09638 | 7517 ft | 261 kts | 340° |
| 2026-05-06 10:23 | 38.47311 | 27.08404 | 8280 ft | 267 kts | 317° |
| 2026-05-06 10:24 | 38.48328 | 27.06455 | 9048 ft | 274 kts | 295° |
| 2026-05-06 10:24 | 38.48667 | 27.04024 | 9798 ft | 285 kts | 272° |
| 2026-05-06 10:24 | 38.48173 | 27.01553 | 10409 ft | 300 kts | 247° |
| 2026-05-06 10:24 | 38.46800 | 26.99449 | 10777 ft | 325 kts | 218° |
| 2026-05-06 10:25 | 38.44681 | 26.98313 | 11107 ft | 345 kts | 189° |
| 2026-05-06 10:25 | 38.42237 | 26.98375 | 11446 ft | 361 kts | 172° |
| 2026-05-06 10:25 | 38.39679 | 26.98955 | 11731 ft | 377 kts | 169° |
| 2026-05-06 10:25 | 38.37082 | 26.99585 | 12047 ft | 391 kts | 170° |
| 2026-05-06 10:26 | 38.34362 | 27.00206 | 12627 ft | 397 kts | 167° |
| 2026-05-06 10:26 | 38.31817 | 27.01516 | 13231 ft | 399 kts | 146° |
| 2026-05-06 10:26 | 38.29827 | 27.03881 | 13813 ft | 397 kts | 125° |
| 2026-05-06 10:26 | 38.28256 | 27.06747 | 14475 ft | 398 kts | 122° |
| 2026-05-06 10:27 | 38.26709 | 27.09690 | 15035 ft | 403 kts | 121° |
| 2026-05-06 10:27 | 38.25143 | 27.12657 | 15580 ft | 407 kts | 122° |
| 2026-05-06 10:27 | 38.23542 | 27.15654 | 16141 ft | 412 kts | 122° |
| 2026-05-06 10:27 | 38.21921 | 27.18663 | 16693 ft | 416 kts | 122° |
| 2026-05-06 10:28 | 38.20275 | 27.21697 | 17238 ft | 419 kts | 122° |
| 2026-05-06 10:28 | 38.18626 | 27.24725 | 17751 ft | 424 kts | 122° |
| 2026-05-06 10:28 | 38.16935 | 27.27826 | 18273 ft | 427 kts | 122° |
| 2026-05-06 10:28 | 38.15237 | 27.30930 | 18799 ft | 431 kts | 122° |
| 2026-05-06 10:29 | 38.13535 | 27.34041 | 19283 ft | 435 kts | 123° |
| 2026-05-06 10:29 | 38.11799 | 27.37207 | 19775 ft | 439 kts | 123° |
| 2026-05-06 10:29 | 38.10059 | 27.40378 | 20243 ft | 442 kts | 123° |
| 2026-05-06 10:29 | 38.08297 | 27.43587 | 20695 ft | 446 kts | 122° |
| 2026-05-06 10:30 | 38.06511 | 27.46839 | 21147 ft | 450 kts | 123° |
| 2026-05-06 10:30 | 38.04716 | 27.50104 | 21587 ft | 454 kts | 122° |
| 2026-05-06 10:30 | 38.02907 | 27.53388 | 22033 ft | 457 kts | 122° |
| 2026-05-06 10:30 | 38.01096 | 27.56674 | 22453 ft | 461 kts | 122° |
| 2026-05-06 10:31 | 37.99253 | 27.60016 | 22852 ft | 465 kts | 122° |
| 2026-05-06 10:31 | 37.97400 | 27.63372 | 23254 ft | 468 kts | 122° |
| 2026-05-06 10:31 | 37.95518 | 27.66784 | 23652 ft | 471 kts | 123° |
| 2026-05-06 10:31 | 37.93645 | 27.70185 | 24071 ft | 474 kts | 123° |
| 2026-05-06 10:32 | 37.91759 | 27.73600 | 24469 ft | 476 kts | 123° |
| 2026-05-06 10:32 | 37.89847 | 27.77051 | 24832 ft | 479 kts | 123° |
| 2026-05-06 10:32 | 37.87919 | 27.80505 | 25177 ft | 482 kts | 123° |
| 2026-05-06 10:32 | 37.86000 | 27.83930 | 25484 ft | 485 kts | 123° |
| 2026-05-06 10:33 | 37.84038 | 27.87432 | 25801 ft | 488 kts | 123° |
| 2026-05-06 10:33 | 37.82091 | 27.90917 | 26123 ft | 490 kts | 123° |
| 2026-05-06 10:33 | 37.80111 | 27.94461 | 26435 ft | 492 kts | 123° |
| 2026-05-06 10:33 | 37.78155 | 27.97967 | 26868 ft | 491 kts | 123° |
| 2026-05-06 10:34 | 37.76183 | 28.01500 | 27245 ft | 491 kts | 123° |
| 2026-05-06 10:34 | 37.74223 | 28.05006 | 27519 ft | 494 kts | 123° |
| 2026-05-06 10:34 | 37.72232 | 28.08563 | 27847 ft | 494 kts | 123° |
| 2026-05-06 10:34 | 37.70277 | 28.12057 | 28244 ft | 493 kts | 123° |
| 2026-05-06 10:35 | 37.68297 | 28.15589 | 28640 ft | 492 kts | 123° |
| 2026-05-06 10:35 | 37.66311 | 28.19127 | 29007 ft | 492 kts | 123° |
| 2026-05-06 10:35 | 37.64342 | 28.22634 | 29365 ft | 492 kts | 123° |
| 2026-05-06 10:35 | 37.62374 | 28.26133 | 29739 ft | 491 kts | 123° |
| 2026-05-06 10:36 | 37.60398 | 28.29647 | 30097 ft | 490 kts | 123° |
| 2026-05-06 10:36 | 37.58451 | 28.33107 | 30438 ft | 489 kts | 123° |
| 2026-05-06 10:36 | 37.56494 | 28.36580 | 30734 ft | 489 kts | 123° |
| 2026-05-06 10:36 | 37.54518 | 28.40084 | 31028 ft | 489 kts | 123° |
| 2026-05-06 10:37 | 37.52555 | 28.43564 | 31325 ft | 489 kts | 123° |
| 2026-05-06 10:37 | 37.50581 | 28.47053 | 31616 ft | 489 kts | 123° |
| 2026-05-06 10:37 | 37.48626 | 28.50502 | 31897 ft | 488 kts | 123° |
| 2026-05-06 10:37 | 37.46636 | 28.54008 | 32178 ft | 488 kts | 123° |
| 2026-05-06 10:38 | 37.44685 | 28.57443 | 32444 ft | 487 kts | 123° |
| 2026-05-06 10:38 | 37.42721 | 28.60899 | 32714 ft | 487 kts | 123° |
| 2026-05-06 10:38 | 37.40753 | 28.64372 | 32968 ft | 486 kts | 122° |
| 2026-05-06 10:38 | 37.38934 | 28.67894 | 33209 ft | 485 kts | 119° |
| 2026-05-06 10:39 | 37.37280 | 28.71600 | 33399 ft | 484 kts | 115° |
| 2026-05-06 10:39 | 37.35845 | 28.75394 | 33586 ft | 483 kts | 110° |
| 2026-05-06 10:39 | 37.34613 | 28.79318 | 33765 ft | 482 kts | 107° |
| 2026-05-06 10:39 | 37.33599 | 28.83306 | 33944 ft | 481 kts | 102° |
| 2026-05-06 10:40 | 37.32757 | 28.87369 | 34127 ft | 480 kts | 101° |
| 2026-05-06 10:40 | 37.31958 | 28.91425 | 34275 ft | 481 kts | 101° |
| 2026-05-06 10:40 | 37.31160 | 28.95474 | 34393 ft | 482 kts | 101° |
| 2026-05-06 10:40 | 37.30343 | 28.99571 | 34506 ft | 483 kts | 101° |
| 2026-05-06 10:41 | 37.29521 | 29.03661 | 34629 ft | 484 kts | 101° |
| 2026-05-06 10:41 | 37.28694 | 29.07734 | 34768 ft | 485 kts | 101° |
| 2026-05-06 10:41 | 37.27865 | 29.11800 | 34897 ft | 485 kts | 101° |
| 2026-05-06 10:41 | 37.27021 | 29.15928 | 35011 ft | 486 kts | 101° |
| 2026-05-06 10:42 | 37.25339 | 29.24133 | 35059 ft | 487 kts | 101° |
| 2026-05-06 10:42 | 37.23649 | 29.32306 | 35071 ft | 487 kts | 101° |
| 2026-05-06 10:43 | 37.21950 | 29.40479 | 35071 ft | 485 kts | 101° |
| 2026-05-06 10:44 | 37.19407 | 29.52712 | 35077 ft | 486 kts | 101° |
| 2026-05-06 10:44 | 37.17705 | 29.60874 | 35082 ft | 485 kts | 101° |
| 2026-05-06 10:45 | 37.15993 | 29.69028 | 35085 ft | 485 kts | 102° |
| 2026-05-06 10:45 | 37.14270 | 29.77184 | 35094 ft | 486 kts | 102° |
| 2026-05-06 10:46 | 37.12536 | 29.85347 | 35090 ft | 485 kts | 102° |
| 2026-05-06 10:46 | 37.10804 | 29.93473 | 35092 ft | 485 kts | 102° |
| 2026-05-06 10:47 | 37.09063 | 30.01588 | 35091 ft | 485 kts | 102° |
| 2026-05-06 10:47 | 37.07306 | 30.09752 | 35087 ft | 485 kts | 102° |
| 2026-05-06 10:48 | 37.05555 | 30.17859 | 35087 ft | 485 kts | 102° |
| 2026-05-06 10:48 | 37.03789 | 30.26011 | 35084 ft | 485 kts | 103° |
| 2026-05-06 10:49 | 37.02034 | 30.34083 | 35072 ft | 486 kts | 103° |
| 2026-05-06 10:49 | 37.00254 | 30.42244 | 35069 ft | 485 kts | 103° |
| 2026-05-06 10:50 | 36.98481 | 30.50344 | 35063 ft | 485 kts | 103° |
| 2026-05-06 10:50 | 36.96692 | 30.58490 | 35048 ft | 485 kts | 103° |
| 2026-05-06 10:51 | 36.94907 | 30.66587 | 35037 ft | 484 kts | 103° |
| 2026-05-06 10:51 | 36.93159 | 30.74696 | 35027 ft | 483 kts | 101° |
| 2026-05-06 10:52 | 36.92001 | 30.82879 | 35018 ft | 481 kts | 94° |
| 2026-05-06 10:52 | 36.91550 | 30.91220 | 35018 ft | 480 kts | 90° |
| 2026-05-06 10:53 | 36.91239 | 30.99541 | 35014 ft | 481 kts | 90° |
| 2026-05-06 10:53 | 36.90910 | 31.07836 | 35024 ft | 481 kts | 90° |
| 2026-05-06 10:54 | 36.90564 | 31.16169 | 35024 ft | 481 kts | 90° |
| 2026-05-06 10:54 | 36.90208 | 31.24502 | 35020 ft | 481 kts | 90° |
| 2026-05-06 10:55 | 36.89842 | 31.32770 | 35032 ft | 480 kts | 90° |
| 2026-05-06 10:55 | 36.89495 | 31.41069 | 35046 ft | 479 kts | 88° |
| 2026-05-06 10:56 | 36.89645 | 31.49359 | 35063 ft | 478 kts | 84° |
| 2026-05-06 10:56 | 36.89938 | 31.57657 | 35073 ft | 478 kts | 84° |
| 2026-05-06 10:57 | 36.90216 | 31.65961 | 35076 ft | 477 kts | 85° |
| 2026-05-06 10:57 | 36.90451 | 31.74200 | 35078 ft | 478 kts | 87° |
| 2026-05-06 10:58 | 36.90336 | 31.82517 | 35084 ft | 479 kts | 89° |
| 2026-05-06 10:58 | 36.90158 | 31.90817 | 35086 ft | 479 kts | 89° |
| 2026-05-06 10:59 | 36.89977 | 31.99123 | 35071 ft | 479 kts | 89° |
| 2026-05-06 10:59 | 36.89770 | 32.07435 | 35066 ft | 479 kts | 90° |
| 2026-05-06 11:00 | 36.89563 | 32.15715 | 35078 ft | 480 kts | 89° |
| 2026-05-06 11:00 | 36.89355 | 32.24002 | 35088 ft | 479 kts | 90° |
| 2026-05-06 11:01 | 36.89143 | 32.32290 | 35085 ft | 478 kts | 89° |
| 2026-05-06 11:01 | 36.88928 | 32.40610 | 35088 ft | 479 kts | 90° |
| 2026-05-06 11:02 | 36.88702 | 32.48903 | 35075 ft | 479 kts | 90° |
| 2026-05-06 11:02 | 36.88465 | 32.57177 | 35063 ft | 479 kts | 90° |
| 2026-05-06 11:03 | 36.88227 | 32.65492 | 35063 ft | 480 kts | 90° |
| 2026-05-06 11:03 | 36.87985 | 32.73813 | 35070 ft | 479 kts | 90° |
| 2026-05-06 11:04 | 36.87742 | 32.82052 | 35069 ft | 479 kts | 90° |
| 2026-05-06 11:04 | 36.87493 | 32.90343 | 35060 ft | 479 kts | 90° |
| 2026-05-06 11:05 | 36.87241 | 32.98608 | 35051 ft | 479 kts | 90° |
| 2026-05-06 11:05 | 36.86982 | 33.06925 | 35053 ft | 479 kts | 90° |
| 2026-05-06 11:06 | 36.86720 | 33.15178 | 35059 ft | 480 kts | 90° |
| 2026-05-06 11:06 | 36.86447 | 33.23517 | 35063 ft | 481 kts | 90° |
| 2026-05-06 11:07 | 36.86377 | 33.31862 | 35071 ft | 480 kts | 85° |
| 2026-05-06 11:07 | 36.86769 | 33.40148 | 35069 ft | 481 kts | 84° |
| 2026-05-06 11:08 | 36.87195 | 33.48438 | 35064 ft | 481 kts | 84° |
| 2026-05-06 11:08 | 36.87610 | 33.56762 | 35058 ft | 481 kts | 84° |
| 2026-05-06 11:09 | 36.88013 | 33.65060 | 35057 ft | 481 kts | 85° |
| 2026-05-06 11:09 | 36.88406 | 33.73384 | 35058 ft | 481 kts | 85° |
| 2026-05-06 11:10 | 36.88797 | 33.81722 | 35057 ft | 482 kts | 85° |
| 2026-05-06 11:10 | 36.89179 | 33.90012 | 35062 ft | 483 kts | 85° |
| 2026-05-06 11:11 | 36.89559 | 33.98378 | 35062 ft | 483 kts | 85° |
| 2026-05-06 11:11 | 36.89935 | 34.06726 | 35058 ft | 483 kts | 85° |
| 2026-05-06 11:12 | 36.90307 | 34.15111 | 35068 ft | 484 kts | 85° |
| 2026-05-06 11:12 | 36.90671 | 34.23439 | 35070 ft | 484 kts | 85° |
| 2026-05-06 11:13 | 36.91032 | 34.31800 | 35072 ft | 484 kts | 85° |
| 2026-05-06 11:13 | 36.91384 | 34.40165 | 34724 ft | 478 kts | 85° |
| 2026-05-06 11:13 | 36.91540 | 34.44235 | 34270 ft | 477 kts | 85° |
| 2026-05-06 11:14 | 36.91680 | 34.48375 | 33744 ft | 475 kts | 85° |
| 2026-05-06 11:14 | 36.91815 | 34.52454 | 33205 ft | 473 kts | 85° |
| 2026-05-06 11:14 | 36.91952 | 34.56540 | 32591 ft | 473 kts | 85° |
| 2026-05-06 11:14 | 36.92090 | 34.60679 | 31926 ft | 474 kts | 85° |
| 2026-05-06 11:15 | 36.92225 | 34.64729 | 31277 ft | 475 kts | 84° |
| 2026-05-06 11:15 | 36.92363 | 34.68880 | 30571 ft | 477 kts | 85° |
| 2026-05-06 11:15 | 36.92500 | 34.73005 | 29869 ft | 478 kts | 85° |
| 2026-05-06 11:15 | 36.92636 | 34.77109 | 29141 ft | 478 kts | 85° |
| 2026-05-06 11:16 | 36.92772 | 34.81235 | 28430 ft | 478 kts | 85° |
| 2026-05-06 11:16 | 36.92908 | 34.85399 | 27703 ft | 478 kts | 85° |
| 2026-05-06 11:16 | 36.93040 | 34.89500 | 27003 ft | 477 kts | 85° |
| 2026-05-06 11:16 | 36.93171 | 34.93631 | 26492 ft | 471 kts | 85° |
| 2026-05-06 11:17 | 36.93297 | 34.97637 | 26025 ft | 465 kts | 86° |
| 2026-05-06 11:17 | 36.93424 | 35.01685 | 25503 ft | 461 kts | 86° |
| 2026-05-06 11:17 | 36.93547 | 35.05645 | 24958 ft | 457 kts | 86° |
| 2026-05-06 11:17 | 36.93667 | 35.09546 | 24410 ft | 453 kts | 86° |
| 2026-05-06 11:18 | 36.93784 | 35.13443 | 23892 ft | 448 kts | 86° |
| 2026-05-06 11:18 | 36.93847 | 35.17310 | 23363 ft | 445 kts | 91° |
| 2026-05-06 11:18 | 36.93346 | 35.21088 | 22798 ft | 443 kts | 105° |
| 2026-05-06 11:18 | 36.92154 | 35.24619 | 22254 ft | 439 kts | 119° |
| 2026-05-06 11:19 | 36.90548 | 35.27797 | 21751 ft | 435 kts | 123° |
| 2026-05-06 11:19 | 36.88868 | 35.30913 | 21216 ft | 432 kts | 124° |
| 2026-05-06 11:19 | 36.87189 | 35.34008 | 20698 ft | 428 kts | 124° |
| 2026-05-06 11:19 | 36.85533 | 35.37081 | 20193 ft | 424 kts | 124° |
| 2026-05-06 11:20 | 36.83917 | 35.40102 | 19685 ft | 421 kts | 124° |
| 2026-05-06 11:20 | 36.82315 | 35.43105 | 19185 ft | 417 kts | 124° |
| 2026-05-06 11:20 | 36.80706 | 35.46130 | 18678 ft | 413 kts | 124° |
| 2026-05-06 11:20 | 36.79132 | 35.49091 | 18169 ft | 410 kts | 124° |
| 2026-05-06 11:21 | 36.77570 | 35.52031 | 17670 ft | 407 kts | 124° |
| 2026-05-06 11:21 | 36.76030 | 35.54929 | 17202 ft | 403 kts | 124° |
| 2026-05-06 11:21 | 36.74483 | 35.57838 | 16719 ft | 400 kts | 124° |
| 2026-05-06 11:21 | 36.72949 | 35.60719 | 16253 ft | 396 kts | 124° |
| 2026-05-06 11:22 | 36.71442 | 35.63549 | 15791 ft | 392 kts | 124° |
| 2026-05-06 11:22 | 36.69953 | 35.66345 | 15321 ft | 389 kts | 124° |
| 2026-05-06 11:22 | 36.68475 | 35.69127 | 14860 ft | 385 kts | 124° |
| 2026-05-06 11:22 | 36.67004 | 35.71894 | 14410 ft | 381 kts | 124° |
| 2026-05-06 11:23 | 36.65540 | 35.74642 | 13953 ft | 377 kts | 124° |
| 2026-05-06 11:23 | 36.64114 | 35.77316 | 13492 ft | 374 kts | 124° |
| 2026-05-06 11:23 | 36.62680 | 35.79998 | 13015 ft | 371 kts | 124° |
| 2026-05-06 11:23 | 36.61256 | 35.82658 | 12533 ft | 368 kts | 124° |
| 2026-05-06 11:24 | 36.59849 | 35.85283 | 12067 ft | 365 kts | 124° |
| 2026-05-06 11:24 | 36.58442 | 35.87905 | 11674 ft | 360 kts | 124° |
| 2026-05-06 11:24 | 36.57056 | 35.90487 | 11678 ft | 361 kts | 124° |
| 2026-05-06 11:24 | 36.55649 | 35.93105 | 11682 ft | 363 kts | 124° |
| 2026-05-06 11:25 | 36.54254 | 35.95702 | 11681 ft | 362 kts | 124° |
| 2026-05-06 11:25 | 36.52864 | 35.98287 | 11494 ft | 358 kts | 124° |
| 2026-05-06 11:25 | 36.51490 | 36.00842 | 11136 ft | 352 kts | 124° |
| 2026-05-06 11:25 | 36.50157 | 36.03321 | 10958 ft | 341 kts | 124° |
| 2026-05-06 11:26 | 36.48869 | 36.05712 | 10784 ft | 331 kts | 124° |
| 2026-05-06 11:26 | 36.47609 | 36.08050 | 10610 ft | 321 kts | 124° |
| 2026-05-06 11:26 | 36.46394 | 36.10298 | 10420 ft | 311 kts | 124° |
| 2026-05-06 11:26 | 36.45204 | 36.12502 | 10230 ft | 301 kts | 124° |
| 2026-05-06 11:27 | 36.44060 | 36.14620 | 10037 ft | 292 kts | 124° |
| 2026-05-06 11:27 | 36.42942 | 36.16690 | 9861 ft | 283 kts | 124° |
| 2026-05-06 11:27 | 36.41862 | 36.18684 | 9664 ft | 274 kts | 124° |
| 2026-05-06 11:27 | 36.40820 | 36.20610 | 9476 ft | 265 kts | 124° |
| 2026-05-06 11:28 | 36.39810 | 36.22476 | 9310 ft | 257 kts | 124° |
| 2026-05-06 11:28 | 36.38821 | 36.24297 | 9139 ft | 248 kts | 125° |
| 2026-05-06 11:28 | 36.37667 | 36.25811 | 8833 ft | 243 kts | 149° |
| 2026-05-06 11:28 | 36.36114 | 36.26527 | 8492 ft | 238 kts | 175° |
| 2026-05-06 11:29 | 36.34500 | 36.26367 | 8135 ft | 234 kts | 200° |
| 2026-05-06 11:29 | 36.33085 | 36.25399 | 7773 ft | 231 kts | 221° |
| 2026-05-06 11:29 | 36.31921 | 36.24069 | 7478 ft | 228 kts | 224° |
| 2026-05-06 11:29 | 36.30795 | 36.22732 | 7170 ft | 223 kts | 224° |
| 2026-05-06 11:30 | 36.29653 | 36.21384 | 6597 ft | 229 kts | 224° |
| 2026-05-06 11:30 | 36.28495 | 36.20029 | 6144 ft | 229 kts | 224° |
| 2026-05-06 11:30 | 36.27348 | 36.18695 | 5736 ft | 226 kts | 224° |
| 2026-05-06 11:30 | 36.26211 | 36.17380 | 5387 ft | 220 kts | 223° |
| 2026-05-06 11:31 | 36.25125 | 36.16128 | 5165 ft | 208 kts | 223° |
| 2026-05-06 11:31 | 36.24085 | 36.14933 | 4954 ft | 198 kts | 223° |
| 2026-05-06 11:31 | 36.23103 | 36.13806 | 4749 ft | 187 kts | 223° |
| 2026-05-06 11:31 | 36.22178 | 36.12743 | 4551 ft | 177 kts | 223° |
| 2026-05-06 11:32 | 36.21294 | 36.11771 | 4386 ft | 164 kts | 214° |
| 2026-05-06 11:32 | 36.20224 | 36.11329 | 4403 ft | 164 kts | 189° |
| 2026-05-06 11:32 | 36.19089 | 36.11198 | 4392 ft | 165 kts | 185° |
| 2026-05-06 11:32 | 36.17932 | 36.11120 | 4386 ft | 166 kts | 185° |
| 2026-05-06 11:33 | 36.16781 | 36.11051 | 4386 ft | 166 kts | 185° |
| 2026-05-06 11:33 | 36.15624 | 36.10987 | 4385 ft | 166 kts | 184° |
| 2026-05-06 11:33 | 36.14487 | 36.10790 | 4361 ft | 163 kts | 207° |
| 2026-05-06 11:33 | 36.13737 | 36.09815 | 4361 ft | 159 kts | 253° |
| 2026-05-06 11:34 | 36.13806 | 36.08493 | 4372 ft | 161 kts | 297° |
| 2026-05-06 11:34 | 36.14601 | 36.07503 | 4413 ft | 167 kts | 320° |
| 2026-05-06 11:34 | 36.15467 | 36.06546 | 4398 ft | 167 kts | 314° |
| 2026-05-06 11:34 | 36.16476 | 36.05804 | 4355 ft | 170 kts | 350° |
| 2026-05-06 11:35 | 36.17625 | 36.06015 | 4382 ft | 173 kts | 28° |
| 2026-05-06 11:35 | 36.18477 | 36.07063 | 4402 ft | 175 kts | 57° |
| 2026-05-06 11:35 | 36.19092 | 36.08360 | 4388 ft | 177 kts | 60° |
| 2026-05-06 11:35 | 36.19767 | 36.09647 | 4379 ft | 178 kts | 52° |
| 2026-05-06 11:36 | 36.20569 | 36.10819 | 4369 ft | 178 kts | 46° |
| 2026-05-06 11:36 | 36.21454 | 36.11892 | 4196 ft | 178 kts | 42° |
| 2026-05-06 11:36 | 36.22366 | 36.12924 | 3934 ft | 177 kts | 41° |
| 2026-05-06 11:36 | 36.23280 | 36.13952 | 3667 ft | 176 kts | 41° |
| 2026-05-06 11:37 | 36.24177 | 36.14968 | 3410 ft | 176 kts | 42° |
| 2026-05-06 11:37 | 36.25081 | 36.15999 | 3152 ft | 176 kts | 42° |
| 2026-05-06 11:37 | 36.25980 | 36.17028 | 2907 ft | 176 kts | 41° |
| 2026-05-06 11:37 | 36.26873 | 36.18051 | 2661 ft | 174 kts | 42° |
| 2026-05-06 11:38 | 36.27761 | 36.19071 | 2451 ft | 173 kts | 41° |
| 2026-05-06 11:38 | 36.28621 | 36.20055 | 2192 ft | 168 kts | 41° |
| 2026-05-06 11:38 | 36.29474 | 36.21031 | 1941 ft | 166 kts | 41° |
| 2026-05-06 11:38 | 36.30322 | 36.22001 | 1703 ft | 166 kts | 41° |
| 2026-05-06 11:39 | 36.31173 | 36.22973 | 1465 ft | 165 kts | 41° |
| 2026-05-06 11:39 | 36.32010 | 36.23928 | 1225 ft | 163 kts | 42° |
| 2026-05-06 11:39 | 36.32848 | 36.24888 | 994 ft | 164 kts | 42° |
| 2026-05-06 11:39 | 36.33672 | 36.25831 | 764 ft | 161 kts | 40° |
| 2026-05-06 11:40 | 36.34495 | 36.26772 | 541 ft | 160 kts | 41° |
| 2026-05-06 11:40 | 36.35307 | 36.27700 | 310 ft | 159 kts | 41° |
| 2026-05-06 11:40 | 36.35999 | 36.28485 | 286 ft | 93 kts | 43° |
| 2026-05-06 11:40 | 36.36241 | 36.28763 | 286 ft | 10 kts | 43° |
| 2026-05-06 11:41 | 36.36280 | 36.28807 | 286 ft | 8 kts | 43° |
| 2026-05-06 11:41 | 36.36327 | 36.28861 | 286 ft | 10 kts | 43° |
| 2026-05-06 11:41 | 36.36373 | 36.28928 | 286 ft | 7 kts | 47° |
| 2026-05-06 11:41 | 36.36379 | 36.28907 | 286 ft | 6 kts | 229° |
| 2026-05-06 11:42 | 36.36341 | 36.28863 | 286 ft | 8 kts | 223° |
| 2026-05-06 11:42 | 36.36295 | 36.28809 | 286 ft | 10 kts | 223° |
| 2026-05-06 11:42 | 36.36241 | 36.28743 | 286 ft | 11 kts | 226° |
| 2026-05-06 11:42 | 36.36178 | 36.28673 | 286 ft | 12 kts | 223° |
| 2026-05-06 11:43 | 36.36107 | 36.28595 | 286 ft | 14 kts | 218° |
| 2026-05-06 11:43 | 36.36084 | 36.28563 | 286 ft | 5 kts | 238° |
| 2026-05-06 11:43 | 36.36087 | 36.28510 | 286 ft | 7 kts | 296° |
| 2026-05-06 11:44 | 36.36165 | 36.28388 | 286 ft | 10 kts | 309° |
| 2026-05-06 11:44 | 36.36212 | 36.28324 | 286 ft | 7 kts | 350° |
| 2026-05-06 11:44 | 36.36245 | 36.28334 | 287 ft | 3 kts | 1° |
| 2026-05-06 11:44 | 36.36261 | 36.28311 | 287 ft | 4 kts | 288° |
| 2026-05-06 11:45 | 36.36268 | 36.28265 | 287 ft | 0 kts | 276° |
| 2026-05-06 11:45 | 36.36268 | 36.28264 | 287 ft | 0 kts | 276° |